Raymond, Canada
Current Conditions -  °F | °C
As of 12:00 PM on Thursday 23 Oct 2014 (Local Time) from CYQL Reporting Station
Broken Clouds Broken Clouds  
Wind Chill: 16°   Ceiling: 21000
Heat Index: 16°   Visibility: 25mi
Dew Point:   Wind: 24mph
Humidity: 42%   Direction: 230°SW
Pressure: 29.67"   Gusts: 41mph
Location:  49.47°N, 112.66°W
Report Text: CYQL 231800Z 23021G36KT 25SM SCT150 BKN210 16/03 A2967 RMK AC4CI3 SLP050 DENSITY ALT 4100FT
Loading
Personal Weather Stations






























Interactive Weather Map
Tropical Storm Tracking
New forecast layout! Learn more

10-Day Weather Forecast

Advertisements
Track Severe Weather on mobile